Falfurrias, TX

1:29 PM CST on December 05, 2019 (GMT -0600)
Falfurrias

Weather History for KBKS - September, 2019

Change the Weather History Date:

Thursday, September 26, 2019

  Actual Average (WUND) Record (WUND)
Temperature  
Mean Temperature 85 °F -  
Max Temperature 96 °F - - (-1)
Min Temperature 75 °F - - (-1)
Cooling Degree Days 20    
Growing Degree Days 35 (Base 50)    
Moisture  
Dew Point 72 °F    
Average Humidity 71    
Maximum Humidity 91    
Minimum Humidity 42    
Precipitation  
Precipitation 0.00 in - - ()
Sea Level Pressure  
Sea Level Pressure 29.86 in    
Wind  
Wind Speed 3 mph ()    
Max Wind Speed 13 mph    
Max Gust Speed 17 mph    
Visibility 10.0 miles    
Events      
Averages and records for this station are not official NWS values.
T = Trace of Precipitation, MM = Missing Value Source: Averaged Metar Reports

Daily Weather History Graph

Daily Weather History Graph

Search for Another Location

Airport or City:

Astronomy

Sep. 26, 2019 Rise Set
Actual Time 7:22 AM CDT 7:24 PM CDT
Civil Twilight 6:59 AM CDT 7:47 PM CDT
Nautical Twilight 6:32 AM CDT 8:14 PM CDT
Astronomical Twilight 6:05 AM CDT 8:41 PM CDT
Moon 4:53 AM CDT (9/26) 6:20 PM CDT (9/26)
Length of Visible Light 12h 48m
Length of Day
12h 01m
Waning Crescent, 6% of the Moon is Illuminated
Sep 26
Waning Crescent
Sep 28
New
Oct 5
First Quarter
Oct 13
Full
Oct 21
Last Quarter

Hourly Weather History & Observations

Time (CDT) Temp. Heat Index Dew Point Humidity Pressure Visibility Wind Dir Wind Speed Gust Speed Precip Events Conditions
12:15 AM 79.7 °F - 74.7 °F 84% 29.90 in 10.0 mi Calm Calm - N/A   Clear
12:55 AM 79.0 °F - 74.5 °F 86% 29.89 in 10.0 mi SE 3.5 mph - N/A   Clear
1:15 AM 79.5 °F - 74.8 °F 86% 29.89 in 10.0 mi SE 3.5 mph - N/A   Clear
1:35 AM 79.7 °F - 74.8 °F 85% 29.89 in 10.0 mi SSE 5.8 mph - N/A   Clear
1:55 AM 79.7 °F - 74.8 °F 85% 29.89 in 10.0 mi SE 4.6 mph - N/A   Clear
2:15 AM 79.3 °F - 74.7 °F 86% 29.88 in 10.0 mi SSE 3.5 mph - N/A   Clear
2:35 AM 79.0 °F - 74.7 °F 87% 29.87 in 10.0 mi SE 3.5 mph - N/A   Clear
2:55 AM 78.8 °F - 74.7 °F 87% 29.86 in 10.0 mi SE 4.6 mph - N/A   Clear
3:15 AM 78.6 °F - 74.5 °F 87% 29.86 in 10.0 mi ESE 3.5 mph - N/A   Clear
3:35 AM 78.3 °F - 74.5 °F 88% 29.85 in 10.0 mi SE 3.5 mph - N/A   Clear
3:55 AM 78.1 °F - 74.5 °F 89% 29.85 in 10.0 mi Calm Calm - N/A   Clear
4:15 AM 77.2 °F - 73.6 °F 89% 29.85 in 10.0 mi Calm Calm - N/A   Clear
4:35 AM 76.3 °F - 73.0 °F 90% 29.85 in 10.0 mi Calm Calm - N/A   Scattered Clouds
4:55 AM 76.3 °F - 73.4 °F 91% 29.85 in 10.0 mi Calm Calm - N/A   Scattered Clouds
5:15 AM 77.0 °F - 73.6 °F 89% 29.85 in 10.0 mi Calm Calm - N/A   Overcast
5:35 AM 77.2 °F - 73.8 °F 89% 29.85 in 10.0 mi Calm Calm - N/A   Mostly Cloudy
5:50 AM 77.0 °F - 73.6 °F 89% 29.86 in 10.0 mi Calm Calm - N/A   Scattered Clouds
6:15 AM 77.0 °F - 73.6 °F 89% 29.86 in 10.0 mi Calm Calm - N/A   Scattered Clouds
6:35 AM 76.8 °F - 73.4 °F 89% 29.86 in 10.0 mi Calm Calm - N/A   Scattered Clouds
6:55 AM 75.7 °F - 72.7 °F 90% 29.87 in 10.0 mi Calm Calm - N/A   Clear
7:15 AM 75.6 °F - 72.7 °F 91% 29.88 in 10.0 mi Calm Calm - N/A   Clear
7:35 AM 75.2 °F - 72.5 °F 91% 29.88 in 10.0 mi Calm Calm - N/A   Clear
7:55 AM 75.6 °F - 72.7 °F 91% 29.88 in 7.0 mi Calm Calm - N/A   Clear
8:15 AM 76.8 °F - 73.8 °F 90% 29.89 in 10.0 mi Calm Calm - N/A   Clear
8:35 AM 78.4 °F - 74.5 °F 88% 29.89 in 10.0 mi Calm Calm - N/A   Clear
8:55 AM 80.8 °F 86.5 °F 75.2 °F 83% 29.90 in 10.0 mi Calm Calm - N/A   Clear
9:15 AM 82.9 °F 90.5 °F 75.4 °F 78% 29.90 in 10.0 mi ESE 4.6 mph - N/A   Clear
9:35 AM 84.4 °F 92.7 °F 75.4 °F 74% 29.91 in 10.0 mi SSE 4.6 mph - N/A   Clear
9:55 AM 86.0 °F 95.1 °F 75.4 °F 70% 29.91 in 10.0 mi SE 5.8 mph - N/A   Clear
10:15 AM 86.9 °F 96.4 °F 75.2 °F 68% 29.92 in 10.0 mi South 5.8 mph - N/A   Clear
10:35 AM 86.4 °F 94.2 °F 73.9 °F 66% 29.92 in 10.0 mi SSE 4.6 mph - N/A   Scattered Clouds
10:55 AM 88.2 °F 95.5 °F 72.7 °F 60% 29.91 in 10.0 mi SSE 3.5 mph - N/A   Scattered Clouds
11:15 AM 89.6 °F 98.2 °F 73.6 °F 59% 29.91 in 10.0 mi ESE 6.9 mph - N/A   Scattered Clouds
11:35 AM 88.7 °F 96.2 °F 72.9 °F 59% 29.91 in 10.0 mi Calm Calm - N/A   Scattered Clouds
11:55 AM 90.5 °F 98.1 °F 72.1 °F 55% 29.91 in 10.0 mi SSE 6.9 mph - N/A   Scattered Clouds
12:15 PM 91.6 °F 98.8 °F 72.0 °F 52% 29.90 in 10.0 mi Calm Calm - N/A   Clear
12:35 PM 90.5 °F 97.0 °F 71.1 °F 53% 29.90 in 10.0 mi SE 6.9 mph - N/A   Mostly Cloudy
12:55 PM 91.6 °F 98.8 °F 71.4 °F 52% 29.89 in 10.0 mi ESE 4.6 mph - N/A   Mostly Cloudy
1:15 PM 93.6 °F 100.7 °F 71.4 °F 48% 29.88 in 10.0 mi East 5.8 mph - N/A   Mostly Cloudy
1:55 PM 92.5 °F 99.0 °F 71.1 °F 49% 29.85 in 10.0 mi ESE 3.5 mph - N/A   Scattered Clouds
2:15 PM 92.8 °F 97.6 °F 68.5 °F 45% 29.85 in 10.0 mi NE 4.6 mph - N/A   Scattered Clouds
2:35 PM 94.5 °F 100.2 °F 69.3 °F 44% 29.83 in 10.0 mi ENE 5.8 mph - N/A   Scattered Clouds
2:55 PM 95.0 °F 100.1 °F 68.7 °F 42% 29.82 in 10.0 mi South 3.5 mph - N/A   Scattered Clouds
3:15 PM 93.6 °F 99.5 °F 70.0 °F 46% 29.81 in 10.0 mi East 8.1 mph - N/A   Scattered Clouds
3:35 PM 92.3 °F 99.2 °F 71.4 °F 50% 29.81 in 10.0 mi ESE 8.1 mph - N/A   Clear
3:55 PM 93.2 °F 101.1 °F 72.3 °F 50% 29.80 in 10.0 mi SE 8.1 mph - N/A   Clear
4:15 PM 93.2 °F 100.5 °F 71.6 °F 49% 29.80 in 10.0 mi East 12.7 mph - N/A   Scattered Clouds
4:35 PM 92.5 °F 99.6 °F 71.4 °F 50% 29.79 in 10.0 mi ESE 9.2 mph - N/A   Scattered Clouds
4:55 PM 92.3 °F 99.7 °F 72.0 °F 51% 29.79 in 10.0 mi East 11.5 mph - N/A   Mostly Cloudy
5:15 PM 93.4 °F 100.9 °F 71.6 °F 49% 29.79 in 10.0 mi ESE 10.4 mph 17.3 mph N/A   Scattered Clouds
5:35 PM 92.3 °F 99.7 °F 71.6 °F 51% 29.79 in 10.0 mi SE 11.5 mph - N/A   Scattered Clouds
5:55 PM 92.1 °F 98.8 °F 71.1 °F 50% 29.80 in 10.0 mi ESE 11.5 mph 16.1 mph N/A   Clear
6:15 PM 91.2 °F 98.0 °F 71.4 °F 52% 29.80 in 10.0 mi ESE 9.2 mph - N/A   Scattered Clouds
6:35 PM 89.8 °F 96.0 °F 71.2 °F 54% 29.81 in 10.0 mi ESE 10.4 mph - N/A   Scattered Clouds
6:55 PM 88.2 °F 94.1 °F 71.2 °F 57% 29.81 in 10.0 mi ESE 8.1 mph - N/A   Clear
7:15 PM 86.9 °F 92.1 °F 70.7 °F 58% 29.82 in 10.0 mi East 8.1 mph - N/A   Clear
7:35 PM 85.6 °F 91.1 °F 71.1 °F 62% 29.82 in 10.0 mi East 6.9 mph - N/A   Clear
7:55 PM 84.6 °F 89.7 °F 71.1 °F 64% 29.83 in 10.0 mi East 9.2 mph - N/A   Clear
8:15 PM 83.8 °F 88.6 °F 70.9 °F 65% 29.83 in 10.0 mi East 6.9 mph - N/A   Clear
8:35 PM 82.8 °F 87.2 °F 70.7 °F 67% 29.83 in 10.0 mi East 5.8 mph - N/A   Clear
8:55 PM 81.9 °F 86.0 °F 70.7 °F 69% 29.84 in 10.0 mi East 4.6 mph - N/A   Clear
9:15 PM 81.0 °F 84.7 °F 70.7 °F 71% 29.85 in 10.0 mi ESE 3.5 mph - N/A   Clear
9:35 PM 80.1 °F 83.4 °F 70.7 °F 73% 29.85 in 10.0 mi Calm Calm - N/A   Clear
9:55 PM 79.5 °F - 70.7 °F 74% 29.85 in 10.0 mi Calm Calm - N/A   Clear
10:15 PM 79.7 °F - 70.7 °F 74% 29.86 in 10.0 mi Calm Calm - N/A   Clear
10:35 PM 78.8 °F - 70.9 °F 77% 29.86 in 10.0 mi Calm Calm - N/A   Clear
10:55 PM 78.4 °F - 71.1 °F 78% 29.86 in 10.0 mi Calm Calm - N/A   Clear
11:15 PM 78.1 °F - 70.9 °F 78% 29.86 in 10.0 mi Calm Calm - N/A   Clear
11:35 PM 78.1 °F - 71.1 °F 79% 29.86 in 10.0 mi Calm Calm - N/A   Clear
11:55 PM 77.4 °F - 71.6 °F 82% 29.86 in 10.0 mi Calm Calm - N/A   Clear